createdAt,value
2022-10-01T00:01:21.720Z,11.00
2022-10-01T00:03:49.616Z,11.00
2022-10-01T00:06:20.401Z,11.00
2022-10-01T00:08:50.839Z,11.00
2022-10-01T00:11:22.260Z,11.00
2022-10-01T00:13:50.963Z,11.00
2022-10-01T00:16:21.109Z,11.00
2022-10-01T00:18:49.947Z,11.10
2022-10-01T00:21:20.220Z,11.10
2022-10-01T00:23:48.405Z,11.10
2022-10-01T00:26:17.918Z,11.10
2022-10-01T00:28:48.692Z,11.10
2022-10-01T00:31:17.268Z,11.10
2022-10-01T00:33:45.131Z,11.10
2022-10-01T00:36:13.408Z,11.00
2022-10-01T00:38:42.217Z,11.00
2022-10-01T00:41:10.856Z,11.00
2022-10-01T00:43:43.341Z,11.00
2022-10-01T00:46:18.809Z,11.00
2022-10-01T00:48:53.265Z,11.00
2022-10-01T00:51:21.572Z,11.00
2022-10-01T00:53:49.676Z,11.00
2022-10-01T00:56:18.480Z,10.90
2022-10-01T00:58:46.695Z,10.90
2022-10-01T01:01:15.876Z,10.90
2022-10-01T01:03:43.738Z,10.90
2022-10-01T01:06:11.540Z,10.80
2022-10-01T01:08:39.542Z,10.80
2022-10-01T01:11:15.042Z,10.80
2022-10-01T01:13:53.358Z,10.80
2022-10-01T01:16:29.143Z,10.70
2022-10-01T01:19:03.690Z,10.70
2022-10-01T01:21:33.909Z,10.70
2022-10-01T01:24:26.705Z,10.70
2022-10-01T01:27:10.526Z,10.70
2022-10-01T01:29:44.696Z,10.70
2022-10-01T01:32:17.866Z,10.70
2022-10-01T01:34:50.796Z,10.70
2022-10-01T01:37:23.991Z,10.70
2022-10-01T01:39:54.502Z,10.70
2022-10-01T01:42:27.671Z,10.60
2022-10-01T01:44:59.367Z,10.60
2022-10-01T01:47:33.413Z,10.60
2022-10-01T01:50:03.065Z,10.60
2022-10-01T01:52:31.079Z,10.60
2022-10-01T01:54:59.287Z,10.50
2022-10-01T01:57:27.546Z,10.50
2022-10-01T01:59:56.691Z,10.50
2022-10-01T02:02:28.951Z,10.50
2022-10-01T02:05:00.495Z,10.50
2022-10-01T02:07:52.710Z,10.50
2022-10-01T02:10:33.452Z,10.50
2022-10-01T02:13:13.570Z,10.60
2022-10-01T02:15:53.489Z,10.60
2022-10-01T02:18:29.502Z,10.60
2022-10-01T02:21:05.107Z,10.60
2022-10-01T02:23:39.066Z,10.60
2022-10-01T02:26:11.959Z,10.60
2022-10-01T02:28:42.190Z,10.60
2022-10-01T02:31:13.786Z,10.60
2022-10-01T02:33:43.449Z,10.60
2022-10-01T02:36:13.656Z,10.60
2022-10-01T02:38:45.248Z,10.60
2022-10-01T02:41:17.870Z,10.70
2022-10-01T02:43:53.229Z,10.70
2022-10-01T02:46:28.731Z,10.70
2022-10-01T02:48:57.898Z,10.60
2022-10-01T02:51:36.339Z,10.60
2022-10-01T02:54:10.540Z,10.60
2022-10-01T02:56:56.235Z,10.60
2022-10-01T02:59:24.490Z,10.60
2022-10-01T03:01:53.783Z,10.60
2022-10-01T03:04:21.674Z,10.60
2022-10-01T03:06:49.501Z,10.60
2022-10-01T03:09:17.361Z,10.60
2022-10-01T03:11:45.224Z,10.60
2022-10-01T03:14:13.063Z,10.60
2022-10-01T03:16:40.878Z,10.50
2022-10-01T03:19:10.240Z,10.50
2022-10-01T03:21:38.088Z,10.50
2022-10-01T03:24:05.988Z,10.50
2022-10-01T03:26:33.833Z,10.40
2022-10-01T03:29:01.635Z,10.40
2022-10-01T03:31:29.633Z,10.30
2022-10-01T03:34:00.353Z,10.30
2022-10-01T03:36:29.528Z,10.30
2022-10-01T03:38:57.567Z,10.30
2022-10-01T03:41:25.462Z,10.30
2022-10-01T03:43:57.099Z,10.30
2022-10-01T03:46:27.634Z,10.30
2022-10-01T03:48:57.194Z,10.30
2022-10-01T03:51:25.188Z,10.30
2022-10-01T03:53:54.465Z,10.30
2022-10-01T03:56:22.294Z,10.20
2022-10-01T03:58:50.199Z,10.20
2022-10-01T04:01:18.474Z,10.20
2022-10-01T04:03:46.540Z,10.20
2022-10-01T04:06:14.653Z,10.20
2022-10-01T04:08:42.458Z,10.20
2022-10-01T04:11:11.946Z,10.30
2022-10-01T04:13:39.824Z,10.20
2022-10-01T04:16:08.116Z,10.20
2022-10-01T04:18:36.154Z,10.30
2022-10-01T04:21:05.119Z,10.30
2022-10-01T04:23:32.950Z,10.30
2022-10-01T04:26:02.331Z,10.30
2022-10-01T04:28:32.418Z,10.30
2022-10-01T04:31:14.499Z,10.30
2022-10-01T04:33:42.765Z,10.20
2022-10-01T04:36:10.671Z,10.20
2022-10-01T04:38:38.762Z,10.10
2022-10-01T04:41:07.009Z,10.10
2022-10-01T04:43:36.343Z,10.10
2022-10-01T04:46:04.233Z,10.10
2022-10-01T04:48:32.106Z,10.10
2022-10-01T04:50:59.917Z,10.10
2022-10-01T04:53:27.756Z,10.10
2022-10-01T04:55:55.868Z,10.00
2022-10-01T04:58:23.739Z,10.00
2022-10-01T05:00:52.944Z,10.00
2022-10-01T05:03:21.172Z,10.00
2022-10-01T05:05:48.988Z,10.00
2022-10-01T05:08:16.824Z,10.00
2022-10-01T05:10:44.683Z,10.00
2022-10-01T05:13:12.539Z,10.00
2022-10-01T05:15:40.377Z,9.90
2022-10-01T05:18:09.658Z,9.90
2022-10-01T05:20:38.537Z,9.90
2022-10-01T05:23:06.605Z,9.90
2022-10-01T05:25:34.420Z,9.90
2022-10-01T05:28:06.289Z,9.90
2022-10-01T05:30:35.003Z,9.90
2022-10-01T05:33:04.596Z,9.90
2022-10-01T05:35:33.915Z,9.90
2022-10-01T05:38:02.991Z,9.90
2022-10-01T05:40:31.427Z,9.90
2022-10-01T05:43:00.387Z,9.90
2022-10-01T05:45:28.694Z,9.90
2022-10-01T05:48:00.564Z,9.90
2022-10-01T05:50:31.597Z,9.90
2022-10-01T05:53:01.790Z,9.90
2022-10-01T05:55:33.176Z,10.00
2022-10-01T05:58:02.963Z,10.00
2022-10-01T06:00:31.548Z,10.00
2022-10-01T06:03:00.494Z,10.00
2022-10-01T06:05:29.338Z,10.00
2022-10-01T06:07:57.701Z,10.10
2022-10-01T06:10:28.108Z,10.10
2022-10-01T06:13:01.066Z,10.10
2022-10-01T06:15:29.738Z,10.10
2022-10-01T06:17:57.665Z,10.10
2022-10-01T06:20:25.510Z,10.20
2022-10-01T06:22:58.520Z,10.20
2022-10-01T06:25:30.806Z,10.10
2022-10-01T06:28:00.381Z,10.20
2022-10-01T06:30:30.014Z,10.20
2022-10-01T06:33:02.667Z,10.20
2022-10-01T06:35:30.827Z,10.30
2022-10-01T06:37:58.983Z,10.30
2022-10-01T06:40:29.085Z,10.30
2022-10-01T06:42:58.373Z,10.30
2022-10-01T06:45:26.667Z,10.30
2022-10-01T06:47:55.521Z,10.30
2022-10-01T06:50:23.578Z,10.40
2022-10-01T06:52:51.879Z,10.40
2022-10-01T06:55:20.842Z,10.40
2022-10-01T06:57:55.682Z,10.40
2022-10-01T07:00:24.207Z,10.50
2022-10-01T07:02:52.386Z,10.50
2022-10-01T07:05:20.240Z,10.60
2022-10-01T07:07:48.915Z,10.70
2022-10-01T07:10:20.850Z,10.70
2022-10-01T07:12:50.838Z,10.80
2022-10-01T07:15:20.520Z,10.80
2022-10-01T07:17:49.978Z,10.90
2022-10-01T07:20:18.800Z,10.90
2022-10-01T07:22:47.195Z,10.90
2022-10-01T07:25:15.251Z,11.00
2022-10-01T07:27:43.171Z,11.00
2022-10-01T07:30:13.501Z,11.00
2022-10-01T07:32:44.715Z,11.00
2022-10-01T07:35:12.656Z,11.10
2022-10-01T07:37:40.471Z,11.10
2022-10-01T07:40:09.576Z,11.20
2022-10-01T07:42:38.262Z,11.10
2022-10-01T07:45:07.505Z,11.20
2022-10-01T07:47:36.797Z,11.20
2022-10-01T07:50:07.155Z,11.20
2022-10-01T07:52:34.976Z,11.30
2022-10-01T07:55:02.866Z,11.30
2022-10-01T07:57:31.190Z,11.30
2022-10-01T07:59:59.100Z,11.30
2022-10-01T08:02:27.038Z,11.30
2022-10-01T08:05:13.906Z,11.30
2022-10-01T08:07:41.771Z,11.30
2022-10-01T08:10:09.956Z,11.30
2022-10-01T08:12:37.857Z,11.30
2022-10-01T08:15:10.196Z,11.40
2022-10-01T08:17:39.002Z,11.40
2022-10-01T08:20:10.816Z,11.40
2022-10-01T08:22:42.168Z,11.40
2022-10-01T08:25:11.278Z,11.40
2022-10-01T08:27:39.151Z,11.50
2022-10-01T08:30:08.266Z,11.50
2022-10-01T08:32:36.121Z,11.40
2022-10-01T08:35:04.976Z,11.50
2022-10-01T08:37:34.842Z,11.50
2022-10-01T08:40:03.049Z,11.50
2022-10-01T08:42:43.403Z,11.60
2022-10-01T08:45:16.750Z,11.60
2022-10-01T08:47:49.386Z,11.60
2022-10-01T08:50:27.940Z,11.60
2022-10-01T08:53:02.672Z,11.60
2022-10-01T08:55:36.558Z,11.60
2022-10-01T08:58:06.732Z,11.60
2022-10-01T09:00:37.067Z,11.60
2022-10-01T09:03:08.933Z,11.70
2022-10-01T09:05:49.048Z,11.70
2022-10-01T09:08:43.453Z,11.70
2022-10-01T09:11:21.975Z,11.70
2022-10-01T09:14:18.002Z,11.80
2022-10-01T09:16:55.631Z,11.80
2022-10-01T09:19:40.954Z,11.80
2022-10-01T09:22:17.323Z,11.80
2022-10-01T09:24:51.621Z,11.90
2022-10-01T09:27:22.260Z,11.90
2022-10-01T09:29:53.349Z,11.90
2022-10-01T09:32:25.974Z,11.90
2022-10-01T09:34:55.285Z,11.90
2022-10-01T09:37:30.050Z,11.90
2022-10-01T09:40:19.215Z,11.90
2022-10-01T09:42:48.536Z,12.00
2022-10-01T09:45:18.622Z,12.00
2022-10-01T09:47:52.011Z,12.10
2022-10-01T09:50:26.607Z,12.10
2022-10-01T09:52:55.586Z,12.10
2022-10-01T09:55:31.665Z,12.10
2022-10-01T09:58:04.230Z,12.10
2022-10-01T10:00:33.981Z,12.10
2022-10-01T10:03:02.018Z,12.10
2022-10-01T10:05:39.947Z,12.10
2022-10-01T10:08:13.711Z,12.10
2022-10-01T10:10:51.812Z,12.10
2022-10-01T10:13:24.320Z,12.10
2022-10-01T10:15:54.966Z,12.20
2022-10-01T10:18:29.022Z,12.20
2022-10-01T10:20:57.630Z,12.10
2022-10-01T10:23:28.938Z,12.10
2022-10-01T10:26:00.731Z,12.10
2022-10-01T10:28:30.154Z,12.10
2022-10-01T10:30:58.740Z,12.10
2022-10-01T10:33:27.719Z,12.10
2022-10-01T10:36:01.206Z,12.10
2022-10-01T10:38:33.585Z,12.10
2022-10-01T10:41:03.773Z,12.10
2022-10-01T10:43:35.517Z,12.10
2022-10-01T10:46:03.868Z,12.10
2022-10-01T10:48:36.415Z,12.10
2022-10-01T10:51:06.704Z,12.10
2022-10-01T10:53:44.901Z,12.00
2022-10-01T10:56:22.751Z,12.10
2022-10-01T10:58:51.157Z,12.10
2022-10-01T11:01:24.890Z,12.10
2022-10-01T11:03:56.294Z,12.20
2022-10-01T11:06:24.641Z,12.30
2022-10-01T11:09:01.366Z,12.40
2022-10-01T11:11:51.094Z,12.50
2022-10-01T11:14:35.363Z,12.60
2022-10-01T11:17:39.769Z,12.70
2022-10-01T11:20:22.267Z,12.60
2022-10-01T11:23:05.810Z,12.70
2022-10-01T11:25:43.843Z,12.60
2022-10-01T11:28:29.908Z,12.60
2022-10-01T11:31:06.272Z,12.60
2022-10-01T11:33:44.972Z,12.60
2022-10-01T11:36:19.616Z,12.60
2022-10-01T11:38:54.509Z,12.50
2022-10-01T11:41:32.105Z,12.50
2022-10-01T11:44:07.470Z,12.60
2022-10-01T11:46:45.670Z,12.50
2022-10-01T11:49:38.210Z,12.60
2022-10-01T11:52:16.591Z,12.60
2022-10-01T11:55:19.685Z,12.60
2022-10-01T11:58:09.528Z,12.60
2022-10-01T12:00:40.701Z,12.60
2022-10-01T12:03:16.902Z,12.60
2022-10-01T12:05:45.365Z,12.60
2022-10-01T12:08:20.168Z,12.70
2022-10-01T12:10:54.984Z,12.60
2022-10-01T12:13:29.434Z,12.70
2022-10-01T12:16:06.185Z,12.70
2022-10-01T12:18:43.928Z,12.70
2022-10-01T12:21:20.434Z,12.70
2022-10-01T12:23:53.685Z,12.70
2022-10-01T12:26:35.702Z,12.70
2022-10-01T12:29:11.808Z,12.70
2022-10-01T12:31:46.626Z,12.70
2022-10-01T12:34:22.534Z,12.70
2022-10-01T12:37:07.353Z,12.70
2022-10-01T12:39:54.789Z,12.80
2022-10-01T12:42:39.689Z,12.80
2022-10-01T12:45:14.005Z,12.80
2022-10-01T12:47:48.341Z,12.80
2022-10-01T12:50:27.862Z,12.90
2022-10-01T12:53:12.682Z,13.00
2022-10-01T12:55:57.615Z,13.10
2022-10-01T12:58:45.717Z,13.30
2022-10-01T13:01:23.707Z,13.70
2022-10-01T13:04:14.182Z,14.10
2022-10-01T13:06:51.820Z,14.40
2022-10-01T13:09:28.722Z,14.50
2022-10-01T13:12:13.881Z,14.60
2022-10-01T13:14:44.445Z,14.90
2022-10-01T13:17:19.785Z,15.00
2022-10-01T13:19:55.089Z,15.20
2022-10-01T13:22:32.404Z,15.30
2022-10-01T13:25:11.666Z,15.90
2022-10-01T13:27:45.771Z,16.70
2022-10-01T13:30:18.878Z,18.00
2022-10-01T13:32:54.322Z,19.10
2022-10-01T13:35:35.163Z,19.90
2022-10-01T13:38:14.778Z,20.00
2022-10-01T13:40:43.156Z,19.50
2022-10-01T13:43:19.029Z,18.70
2022-10-01T13:45:48.553Z,18.10
2022-10-01T13:48:20.215Z,17.80
2022-10-01T13:50:58.940Z,18.10
2022-10-01T13:53:29.672Z,18.30
2022-10-01T13:55:58.709Z,18.70
2022-10-01T13:58:38.267Z,18.90
2022-10-01T14:01:13.879Z,18.90
2022-10-01T14:03:52.011Z,18.80
2022-10-01T14:06:30.573Z,18.50
2022-10-01T14:09:06.329Z,18.10
2022-10-01T14:11:54.676Z,17.80
2022-10-01T14:14:44.511Z,17.60
2022-10-01T14:17:13.588Z,17.20
2022-10-01T14:19:46.956Z,17.00
2022-10-01T14:22:44.079Z,16.80
2022-10-01T14:25:29.743Z,16.50
2022-10-01T14:28:17.952Z,16.40
2022-10-01T14:30:53.415Z,16.20
2022-10-01T14:33:45.456Z,16.00
2022-10-01T14:36:18.608Z,15.80
2022-10-01T14:38:48.277Z,15.70
2022-10-01T14:41:19.869Z,15.60
2022-10-01T14:43:48.127Z,15.60
2022-10-01T14:46:18.142Z,15.50
2022-10-01T14:48:46.139Z,15.50
2022-10-01T14:51:26.377Z,15.50
2022-10-01T14:53:57.688Z,15.50
2022-10-01T14:56:26.245Z,15.40
2022-10-01T14:58:57.485Z,15.40
2022-10-01T15:01:26.235Z,15.40
2022-10-01T15:03:54.688Z,15.40
2022-10-01T15:06:24.390Z,15.40
2022-10-01T15:08:54.813Z,15.40
2022-10-01T15:11:26.806Z,15.30
2022-10-01T15:13:57.579Z,15.20
2022-10-01T15:16:27.959Z,15.20
2022-10-01T15:18:57.838Z,15.10
2022-10-01T15:21:29.095Z,15.00
2022-10-01T15:23:58.085Z,15.00
2022-10-01T15:26:29.751Z,14.90
2022-10-01T15:29:04.403Z,14.80
2022-10-01T15:31:33.007Z,14.80
2022-10-01T15:34:02.369Z,14.70
2022-10-01T15:36:30.464Z,14.60
2022-10-01T15:38:59.078Z,14.60
2022-10-01T15:41:32.607Z,14.50
2022-10-01T15:44:04.339Z,14.50
2022-10-01T15:46:35.156Z,14.40
2022-10-01T15:49:20.733Z,14.40
2022-10-01T15:52:07.479Z,14.40
2022-10-01T15:54:36.468Z,14.30
2022-10-01T15:57:06.962Z,14.30
2022-10-01T15:59:37.058Z,14.30
2022-10-01T16:02:10.877Z,14.30
2022-10-01T16:04:39.248Z,14.20
2022-10-01T16:07:07.179Z,14.20
2022-10-01T16:09:35.057Z,14.20
2022-10-01T16:12:19.151Z,14.20
2022-10-01T16:14:58.064Z,14.20
2022-10-01T16:17:32.093Z,14.10
2022-10-01T16:20:02.082Z,14.10
2022-10-01T16:22:32.735Z,14.10
2022-10-01T16:25:02.757Z,14.10
2022-10-01T16:27:36.393Z,14.10
2022-10-01T16:30:12.893Z,14.00
2022-10-01T16:32:43.228Z,14.00
2022-10-01T16:35:17.914Z,14.00
2022-10-01T16:37:47.482Z,14.00
2022-10-01T16:40:16.494Z,14.00
2022-10-01T16:42:46.601Z,14.00
2022-10-01T16:45:17.712Z,14.00
2022-10-01T16:47:46.351Z,13.90
2022-10-01T16:50:15.905Z,13.90
2022-10-01T16:52:44.111Z,13.90
2022-10-01T16:55:21.889Z,13.90
2022-10-01T16:57:51.819Z,13.90
2022-10-01T17:00:21.880Z,13.80
2022-10-01T17:02:49.849Z,13.80
2022-10-01T17:05:20.295Z,13.80
2022-10-01T17:07:48.168Z,13.80
2022-10-01T17:10:17.605Z,13.80
2022-10-01T17:12:47.697Z,13.80
2022-10-01T17:15:19.944Z,13.80
2022-10-01T17:17:48.176Z,13.80
2022-10-01T17:20:16.437Z,13.80
2022-10-01T17:22:44.497Z,13.80
2022-10-01T17:25:15.666Z,13.80
2022-10-01T17:27:43.531Z,13.80
2022-10-01T17:30:12.153Z,13.80
2022-10-01T17:32:43.616Z,13.80
2022-10-01T17:35:12.954Z,13.80
2022-10-01T17:37:41.347Z,13.80
2022-10-01T17:40:11.188Z,13.80
2022-10-01T17:42:39.272Z,13.80
2022-10-01T17:45:09.388Z,13.80
2022-10-01T17:47:37.534Z,13.70
2022-10-01T17:50:07.624Z,13.70
2022-10-01T17:52:35.556Z,13.70
2022-10-01T17:55:03.514Z,13.70
2022-10-01T17:57:31.374Z,13.70
2022-10-01T17:59:59.264Z,13.70
2022-10-01T18:02:41.766Z,13.70
2022-10-01T18:05:14.047Z,13.70
2022-10-01T18:07:42.178Z,13.70
2022-10-01T18:10:13.252Z,13.60
2022-10-01T18:12:41.452Z,13.60
2022-10-01T18:15:10.493Z,13.60
2022-10-01T18:17:43.408Z,13.60
2022-10-01T18:20:28.578Z,13.60
2022-10-01T18:22:56.462Z,13.60
2022-10-01T18:25:24.354Z,13.60
2022-10-01T18:27:52.233Z,13.60
2022-10-01T18:30:20.850Z,13.60
2022-10-01T18:32:56.667Z,13.60
2022-10-01T18:35:32.136Z,13.60
2022-10-01T18:38:03.709Z,13.60
2022-10-01T18:40:35.661Z,13.60
2022-10-01T18:43:08.429Z,13.50
2022-10-01T18:45:50.344Z,13.60
2022-10-01T18:48:38.420Z,13.60
2022-10-01T18:51:17.218Z,13.60
2022-10-01T18:54:13.270Z,13.50
2022-10-01T18:56:49.273Z,13.60
2022-10-01T18:59:49.918Z,13.60
2022-10-01T19:02:41.400Z,13.50
2022-10-01T19:05:45.980Z,13.50
2022-10-01T19:08:29.017Z,13.50
2022-10-01T19:11:04.952Z,13.50
2022-10-01T19:13:40.270Z,13.50
2022-10-01T19:16:20.238Z,13.40
2022-10-01T19:19:01.569Z,13.40
2022-10-01T19:21:36.812Z,13.40
2022-10-01T19:24:35.272Z,13.40
2022-10-01T19:27:13.494Z,13.40
2022-10-01T19:29:54.953Z,13.40
2022-10-01T19:32:26.469Z,13.40
2022-10-01T19:35:03.129Z,13.40
2022-10-01T19:37:37.602Z,13.40
2022-10-01T19:40:15.851Z,13.40
2022-10-01T19:42:50.042Z,13.40
2022-10-01T19:45:24.127Z,13.40
2022-10-01T19:47:58.259Z,13.40
2022-10-01T19:50:30.608Z,13.40
2022-10-01T19:52:59.906Z,13.40
2022-10-01T19:55:38.293Z,13.40
2022-10-01T19:58:17.397Z,13.40
2022-10-01T20:00:47.314Z,13.40
2022-10-01T20:03:23.386Z,13.40
2022-10-01T20:05:54.423Z,13.40
2022-10-01T20:08:35.616Z,13.40
2022-10-01T20:11:14.619Z,13.40
2022-10-01T20:14:11.922Z,13.40
2022-10-01T20:16:45.270Z,13.40
2022-10-01T20:19:21.367Z,13.40
2022-10-01T20:21:58.860Z,13.40
2022-10-01T20:24:41.848Z,13.50
2022-10-01T20:27:22.002Z,13.40
2022-10-01T20:29:56.356Z,13.40
2022-10-01T20:32:31.539Z,13.50
2022-10-01T20:35:12.996Z,13.50
2022-10-01T20:37:58.022Z,13.50
2022-10-01T20:40:29.556Z,13.50
2022-10-01T20:43:05.734Z,13.50
2022-10-01T20:45:35.472Z,13.50
2022-10-01T20:48:08.070Z,13.50
2022-10-01T20:50:40.525Z,13.50
2022-10-01T20:53:19.092Z,13.50
2022-10-01T20:55:51.445Z,13.50
2022-10-01T20:58:24.716Z,13.50
2022-10-01T21:00:57.936Z,13.50
2022-10-01T21:03:31.739Z,13.50
2022-10-01T21:06:04.695Z,13.50
2022-10-01T21:08:42.083Z,13.50
2022-10-01T21:11:15.465Z,13.50
2022-10-01T21:13:52.898Z,13.50
2022-10-01T21:16:46.297Z,13.40
2022-10-01T21:19:28.495Z,13.40
2022-10-01T21:22:07.559Z,13.40
2022-10-01T21:24:49.632Z,13.40
2022-10-01T21:27:48.013Z,13.40
2022-10-01T21:30:19.162Z,13.40
2022-10-01T21:33:14.338Z,13.40
2022-10-01T21:35:53.426Z,13.40
2022-10-01T21:38:30.422Z,13.40
2022-10-01T21:41:19.653Z,13.40
2022-10-01T21:44:15.430Z,13.40
2022-10-01T21:46:53.255Z,13.50
2022-10-01T21:49:31.883Z,13.50
2022-10-01T21:52:11.439Z,13.50
2022-10-01T21:54:53.962Z,13.50
2022-10-01T21:57:48.265Z,13.50
2022-10-01T22:00:21.101Z,13.50
2022-10-01T22:02:58.665Z,13.50
2022-10-01T22:05:33.873Z,13.50
2022-10-01T22:08:15.356Z,13.40
2022-10-01T22:10:46.680Z,13.50
2022-10-01T22:13:18.287Z,13.40
2022-10-01T22:15:48.216Z,13.40
2022-10-01T22:18:25.325Z,13.40
2022-10-01T22:20:55.571Z,13.40
2022-10-01T22:23:23.960Z,13.50
2022-10-01T22:25:56.919Z,13.50
2022-10-01T22:28:30.333Z,13.50
2022-10-01T22:30:59.987Z,13.50
2022-10-01T22:33:34.071Z,13.50
2022-10-01T22:36:10.375Z,13.50
2022-10-01T22:38:45.180Z,13.50
2022-10-01T22:41:21.066Z,13.50
2022-10-01T22:43:48.932Z,13.50
2022-10-01T22:46:49.779Z,13.50
2022-10-01T22:49:31.259Z,13.50
2022-10-01T22:52:06.595Z,13.50
2022-10-01T22:54:45.247Z,13.50
2022-10-01T22:57:26.808Z,13.50
2022-10-01T23:00:02.650Z,13.50
2022-10-01T23:02:36.232Z,13.50
2022-10-01T23:05:20.119Z,13.50
2022-10-01T23:07:58.804Z,13.50
2022-10-01T23:10:37.009Z,13.50
2022-10-01T23:13:15.605Z,13.50
2022-10-01T23:15:53.211Z,13.50
2022-10-01T23:18:34.348Z,13.50
2022-10-01T23:21:17.380Z,13.50
2022-10-01T23:23:52.154Z,13.50
2022-10-01T23:26:31.543Z,13.50
2022-10-01T23:29:17.201Z,13.50
2022-10-01T23:31:53.878Z,13.40
2022-10-01T23:34:28.507Z,13.50
2022-10-01T23:37:09.875Z,13.40
2022-10-01T23:39:50.533Z,13.40
2022-10-01T23:42:28.990Z,13.40
2022-10-01T23:45:21.762Z,13.40
2022-10-01T23:47:57.099Z,13.30
2022-10-01T23:50:33.896Z,13.30
2022-10-01T23:53:13.407Z,13.30
2022-10-01T23:56:08.091Z,13.30
2022-10-01T23:58:43.596Z,13.30
